createdAt,value
2022-11-25T00:03:51.160Z,9.40
2022-11-25T00:08:39.361Z,8.05
2022-11-25T00:13:24.460Z,7.57
2022-11-25T00:18:09.931Z,5.32
2022-11-25T00:22:54.999Z,6.22
2022-11-25T00:27:42.990Z,5.55
2022-11-25T00:32:28.137Z,5.60
2022-11-25T00:37:13.508Z,5.70
2022-11-25T00:42:11.195Z,5.78
2022-11-25T00:46:59.184Z,5.50
2022-11-25T00:51:44.287Z,6.10
2022-11-25T00:56:30.544Z,4.90
2022-11-25T01:01:15.733Z,5.25
2022-11-25T01:06:06.943Z,4.80
2022-11-25T01:10:51.974Z,5.07
2022-11-25T01:15:39.867Z,4.55
2022-11-25T01:20:25.114Z,4.60
2022-11-25T01:25:13.303Z,4.95
2022-11-25T01:29:58.450Z,4.97
2022-11-25T01:34:43.773Z,4.75
2022-11-25T01:39:32.882Z,5.65
2022-11-25T01:44:23.691Z,5.78
2022-11-25T01:49:15.459Z,5.95
2022-11-25T01:58:50.990Z,5.30
2022-11-25T02:03:43.352Z,5.70
2022-11-25T02:13:15.117Z,5.72
2022-11-25T02:18:00.369Z,5.57
2022-11-25T02:23:00.127Z,5.00
2022-11-25T02:27:50.833Z,4.80
2022-11-25T02:32:36.199Z,4.35
2022-11-25T02:37:24.414Z,4.00
2022-11-25T02:42:11.133Z,4.35
2022-11-25T02:46:59.124Z,4.13
2022-11-25T02:51:46.682Z,4.70
2022-11-25T02:56:34.626Z,4.82
2022-11-25T03:01:19.837Z,4.55
2022-11-25T03:06:08.242Z,5.25
2022-11-25T03:10:53.429Z,4.90
2022-11-25T03:15:39.428Z,5.22
2022-11-25T03:20:24.595Z,5.15
2022-11-25T03:25:13.672Z,5.78
2022-11-25T03:29:58.829Z,5.28
2022-11-25T03:34:44.270Z,5.75
2022-11-25T03:39:29.283Z,5.47
2022-11-25T03:44:17.423Z,4.68
2022-11-25T03:49:02.432Z,4.93
2022-11-25T03:53:47.799Z,4.95
2022-11-25T03:58:32.827Z,4.78
2022-11-25T04:03:21.851Z,4.95
2022-11-25T04:08:07.057Z,4.00
2022-11-25T04:12:52.779Z,4.15
2022-11-25T04:17:37.975Z,3.58
2022-11-25T04:22:25.929Z,3.45
2022-11-25T04:27:10.987Z,3.53
2022-11-25T04:31:56.376Z,2.65
2022-11-25T04:36:41.431Z,2.97
2022-11-25T04:41:29.403Z,2.90
2022-11-25T04:46:18.005Z,2.55
2022-11-25T04:51:03.405Z,2.55
2022-11-25T04:55:48.407Z,3.17
2022-11-25T05:00:36.399Z,4.38
2022-11-25T05:05:21.683Z,2.75
2022-11-25T05:10:09.239Z,2.83
2022-11-25T05:14:54.607Z,2.70
2022-11-25T05:19:42.651Z,2.47
2022-11-25T05:24:27.938Z,2.88
2022-11-25T05:29:13.572Z,3.50
2022-11-25T05:33:58.591Z,3.50
2022-11-25T05:38:46.880Z,2.40
2022-11-25T05:43:32.026Z,2.83
2022-11-25T05:48:17.360Z,3.30
2022-11-25T05:53:03.077Z,3.38
2022-11-25T05:57:51.010Z,3.50
2022-11-25T06:02:36.170Z,3.35
2022-11-25T06:07:21.754Z,4.03
2022-11-25T06:12:07.319Z,4.35
2022-11-25T06:16:55.290Z,2.88
2022-11-25T06:21:40.411Z,3.22
2022-11-25T06:26:28.838Z,3.30
2022-11-25T06:31:16.434Z,3.47
2022-11-25T06:36:06.408Z,3.10
2022-11-25T06:40:54.146Z,3.55
2022-11-25T06:45:41.869Z,3.30
2022-11-25T06:50:27.061Z,4.18
2022-11-25T06:55:15.214Z,3.80
2022-11-25T07:00:00.309Z,3.13
2022-11-25T07:04:46.286Z,3.67
2022-11-25T07:09:31.311Z,4.32
2022-11-25T07:14:20.091Z,5.63
2022-11-25T07:19:06.034Z,4.50
2022-11-25T07:23:52.634Z,2.78
2022-11-25T07:28:38.465Z,3.25
2022-11-25T07:33:26.492Z,3.10
2022-11-25T07:38:11.652Z,5.32
2022-11-25T07:42:57.837Z,4.90
2022-11-25T07:47:42.923Z,4.43
2022-11-25T07:52:30.894Z,3.05
2022-11-25T07:57:16.282Z,3.95
2022-11-25T08:02:01.480Z,2.17
2022-11-25T08:06:48.997Z,2.03
2022-11-25T08:11:36.663Z,2.20
2022-11-25T08:16:24.505Z,1.90
2022-11-25T08:21:12.806Z,2.10
2022-11-25T08:25:58.276Z,2.33
2022-11-25T08:30:45.901Z,3.35
2022-11-25T08:35:31.267Z,3.05
2022-11-25T08:40:17.125Z,2.95
2022-11-25T08:45:02.576Z,3.90
2022-11-25T08:49:53.861Z,10.93
2022-11-25T08:54:39.404Z,9.47
2022-11-25T08:59:25.962Z,11.60
2022-11-25T09:04:11.192Z,7.50
2022-11-25T09:09:02.101Z,7.03
2022-11-25T09:13:47.228Z,4.75
2022-11-25T09:18:32.946Z,4.50
2022-11-25T09:23:18.001Z,3.00
2022-11-25T09:28:06.999Z,3.58
2022-11-25T09:32:53.689Z,3.75
2022-11-25T09:37:39.187Z,3.55
2022-11-25T09:42:46.691Z,3.10
2022-11-25T09:47:47.014Z,3.28
2022-11-25T09:52:40.650Z,2.88
2022-11-25T10:02:20.578Z,2.97
2022-11-25T10:07:16.668Z,4.70
2022-11-25T10:12:06.515Z,3.83
2022-11-25T10:16:55.096Z,2.95
2022-11-25T10:21:40.579Z,2.75
2022-11-25T10:26:38.750Z,2.08
2022-11-25T10:31:28.817Z,2.28
2022-11-25T10:36:18.285Z,2.25
2022-11-25T10:41:06.105Z,2.58
2022-11-25T10:46:01.802Z,3.30
2022-11-25T10:51:06.044Z,2.80
2022-11-25T10:56:03.799Z,3.20
2022-11-25T11:00:48.811Z,3.75
2022-11-25T11:05:37.017Z,2.78
2022-11-25T11:10:24.794Z,4.00
2022-11-25T11:15:22.471Z,3.67
2022-11-25T11:20:22.347Z,4.00
2022-11-25T11:25:31.981Z,4.43
2022-11-25T11:30:21.158Z,5.57
2022-11-25T11:35:15.257Z,3.45
2022-11-25T11:40:15.730Z,3.38
2022-11-25T11:45:15.803Z,3.75
2022-11-25T11:50:30.002Z,3.13
2022-11-25T11:55:30.468Z,3.40
2022-11-25T12:00:30.442Z,2.10
2022-11-25T12:05:22.152Z,2.38
2022-11-25T12:10:13.685Z,2.60
2022-11-25T12:15:08.736Z,2.03
2022-11-25T12:20:04.484Z,2.67
2022-11-25T12:24:54.385Z,2.47
2022-11-25T12:29:45.463Z,2.42
2022-11-25T12:34:41.214Z,2.88
2022-11-25T12:39:37.291Z,2.10
2022-11-25T12:44:25.927Z,2.50
2022-11-25T12:49:20.167Z,1.85
2022-11-25T12:54:17.253Z,2.85
2022-11-25T12:59:25.777Z,2.45
2022-11-25T13:04:35.616Z,2.90
2022-11-25T13:09:40.892Z,2.35
2022-11-25T13:14:43.449Z,2.60
2022-11-25T13:19:29.349Z,2.65
2022-11-25T13:24:31.475Z,2.25
2022-11-25T13:34:31.960Z,3.50
2022-11-25T13:39:19.564Z,3.00
2022-11-25T13:44:10.291Z,2.30
2022-11-25T13:48:56.007Z,2.25
2022-11-25T13:53:44.170Z,2.83
2022-11-25T13:58:36.157Z,1.80
2022-11-25T14:03:47.778Z,1.98
2022-11-25T14:08:49.125Z,1.83
2022-11-25T14:14:00.635Z,1.90
2022-11-25T14:19:35.023Z,1.40
2022-11-25T14:24:21.122Z,1.33
2022-11-25T14:29:11.709Z,1.70
2022-11-25T14:34:01.216Z,1.52
2022-11-25T14:38:51.282Z,1.20
2022-11-25T14:43:43.920Z,1.20
2022-11-25T14:48:29.376Z,1.55
2022-11-25T14:53:15.472Z,1.55
2022-11-25T14:58:00.888Z,1.50
2022-11-25T15:02:57.429Z,1.45
2022-11-25T15:07:45.236Z,1.50
2022-11-25T15:12:38.364Z,1.60
2022-11-25T15:17:31.380Z,1.60
2022-11-25T15:22:24.558Z,1.58
2022-11-25T15:27:17.649Z,1.58
2022-11-25T15:32:03.841Z,1.48
2022-11-25T15:36:54.178Z,1.95
2022-11-25T15:41:44.540Z,1.67
2022-11-25T15:46:30.957Z,1.73
2022-11-25T15:51:27.469Z,1.63
2022-11-25T15:56:18.214Z,3.47
2022-11-25T16:01:08.370Z,1.45
2022-11-25T16:05:57.729Z,2.05
2022-11-25T16:10:53.311Z,3.45
2022-11-25T16:15:48.831Z,6.43
2022-11-25T16:20:36.496Z,4.75
2022-11-25T16:25:22.020Z,5.05
2022-11-25T16:30:21.397Z,6.20
2022-11-25T16:35:16.118Z,5.90
2022-11-25T16:40:04.169Z,5.93
2022-11-25T16:44:51.432Z,10.85
2022-11-25T16:49:37.012Z,10.93
2022-11-25T16:54:23.222Z,4.80
2022-11-25T16:59:13.022Z,5.97
2022-11-25T17:03:58.265Z,8.98
2022-11-25T17:08:44.588Z,12.98
2022-11-25T17:13:29.708Z,13.93
2022-11-25T17:18:19.850Z,14.57
2022-11-25T17:23:04.921Z,16.20
2022-11-25T17:27:51.299Z,19.95
2022-11-25T17:32:37.689Z,16.20
2022-11-25T17:37:28.817Z,18.30
2022-11-25T17:42:16.780Z,30.85
2022-11-25T17:47:02.151Z,38.55
2022-11-25T17:51:47.543Z,33.72
2022-11-25T17:56:35.533Z,29.83
2022-11-25T18:01:21.079Z,30.08
2022-11-25T18:06:06.740Z,29.77
2022-11-25T18:10:52.504Z,30.33
2022-11-25T18:15:40.309Z,29.27
2022-11-25T18:20:29.925Z,29.98
2022-11-25T18:25:19.716Z,33.25
2022-11-25T18:30:07.461Z,38.78
2022-11-25T18:35:17.512Z,31.60
2022-11-25T18:40:03.523Z,36.40
2022-11-25T18:44:48.756Z,38.00
2022-11-25T18:49:34.386Z,43.13
2022-11-25T18:54:22.042Z,51.97
2022-11-25T18:59:09.365Z,46.70
2022-11-25T19:03:55.601Z,42.70
2022-11-25T19:08:40.731Z,43.85
2022-11-25T19:13:32.882Z,39.28
2022-11-25T19:18:25.972Z,40.75
2022-11-25T19:23:22.790Z,53.58
2022-11-25T19:28:08.264Z,42.05
2022-11-25T19:33:01.081Z,34.17
2022-11-25T19:37:46.616Z,37.85
2022-11-25T19:42:31.929Z,37.92
2022-11-25T19:47:20.741Z,36.97
2022-11-25T19:52:08.691Z,37.70
2022-11-25T19:56:54.010Z,38.72
2022-11-25T20:01:43.021Z,35.25
2022-11-25T20:06:30.444Z,37.47
2022-11-25T20:11:20.211Z,31.80
2022-11-25T20:16:05.317Z,50.63
2022-11-25T20:20:56.095Z,34.83
2022-11-25T20:25:45.809Z,39.63
2022-11-25T20:30:33.827Z,50.83
2022-11-25T20:35:19.450Z,45.80
2022-11-25T20:40:05.014Z,37.33
2022-11-25T20:44:54.632Z,20.30
2022-11-25T20:49:46.065Z,19.30
2022-11-25T20:54:33.473Z,19.85
2022-11-25T20:59:23.046Z,21.80
2022-11-25T21:04:08.458Z,18.23
2022-11-25T21:08:58.332Z,16.33
2022-11-25T21:13:43.802Z,26.83
2022-11-25T21:18:28.931Z,23.85
2022-11-25T21:23:21.159Z,13.73
2022-11-25T21:28:08.846Z,16.85
2022-11-25T21:32:56.852Z,16.70
2022-11-25T21:37:43.550Z,17.55
2022-11-25T21:42:29.739Z,21.17
2022-11-25T21:47:20.812Z,18.77
2022-11-25T21:52:06.352Z,12.88
2022-11-25T21:56:52.309Z,14.85
2022-11-25T22:01:37.730Z,26.42
2022-11-25T22:06:27.929Z,34.47
2022-11-25T22:11:17.042Z,26.65
2022-11-25T22:16:02.644Z,27.77
2022-11-25T22:20:53.295Z,52.60
2022-11-25T22:25:41.350Z,48.75
2022-11-25T22:30:27.388Z,36.83
2022-11-25T22:35:17.815Z,46.60
2022-11-25T22:40:03.244Z,92.38
2022-11-25T22:44:52.715Z,62.78
2022-11-25T22:49:43.177Z,54.80
2022-11-25T22:54:28.922Z,41.28
2022-11-25T22:59:14.332Z,47.20
2022-11-25T23:04:03.240Z,44.13
2022-11-25T23:08:48.687Z,34.53
2022-11-25T23:13:33.924Z,31.70
2022-11-25T23:18:27.483Z,20.10
2022-11-25T23:23:19.324Z,36.70
2022-11-25T23:32:54.269Z,37.78
2022-11-25T23:37:39.729Z,49.58
2022-11-25T23:42:27.448Z,61.65
2022-11-25T23:47:19.705Z,61.75
2022-11-25T23:52:08.249Z,50.72
2022-11-25T23:56:53.871Z,45.88
